Time;durP1;ratioP1;P1;durP2;ratioP2;P2;SDS_P1;SDS_P2;PMS_P1;PMS_P2;Temp;Humidity;BMP_temperature;BMP_pressure;BME280_temperature;BME280_humidity;BME280_pressure;Samples;Min_cycle;Max_cycle;Signal;HPM_P1;HPM_P2
2022/04/22 00:02:32;;;;;;;78.47;51.75;;;;;;;;;;10429418;28;20236;-70
2022/04/22 00:07:34;;;;;;;73.82;50.90;;;;;;;;;;10429975;28;20060;-70
2022/04/22 00:12:36;;;;;;;73.38;50.03;;;;;;;;;;10429198;28;20050;-70
2022/04/22 00:17:41;;;;;;;74.57;50.72;;;;;;;;;;10433890;28;20053;-70
2022/04/22 00:22:45;;;;;;;76.10;50.25;;;;;;;;;;10436915;28;20339;-69
2022/04/22 00:27:47;;;;;;;75.72;50.20;;;;;;;;;;10437202;28;20065;-70
2022/04/22 00:32:51;;;;;;;75.85;50.35;;;;;;;;;;10436813;28;20045;-70
2022/04/22 00:37:54;;;;;;;70.38;49.00;;;;;;;;;;10435557;28;20057;-70
2022/04/22 00:42:56;;;;;;;74.78;48.92;;;;;;;;;;10429530;28;183135;-69
2022/04/22 00:48:00;;;;;;;74.57;48.85;;;;;;;;;;10453135;28;20049;-69
2022/04/22 00:53:03;;;;;;;80.22;51.20;;;;;;;;;;10438250;28;20260;-70
2022/04/22 00:58:05;;;;;;;80.70;54.25;;;;;;;;;;10439261;28;20249;-70
2022/04/22 01:03:09;;;;;;;85.53;52.45;;;;;;;;;;10438757;28;20054;-68
2022/04/22 01:13:32;;;;;;;80.80;52.85;;;;;;;;;;10452519;28;20049;-69
2022/04/22 01:18:37;;;;;;;83.47;52.17;;;;;;;;;;10437931;28;20279;-69
2022/04/22 01:23:41;;;;;;;86.45;52.80;;;;;;;;;;10438079;28;20068;-68
2022/04/22 01:28:45;;;;;;;83.40;52.92;;;;;;;;;;10438178;28;20072;-69
2022/04/22 01:33:47;;;;;;;82.38;52.17;;;;;;;;;;10437208;28;20049;-69
2022/04/22 01:38:51;;;;;;;84.45;52.95;;;;;;;;;;10438329;28;20240;-70
2022/04/22 01:43:54;;;;;;;77.32;49.50;;;;;;;;;;10436612;28;20107;-70
2022/04/22 01:48:57;;;;;;;81.85;53.17;;;;;;;;;;10437910;28;20050;-69
2022/04/22 01:54:01;;;;;;;79.00;50.95;;;;;;;;;;10437199;28;20064;-69
2022/04/22 01:59:03;;;;;;;70.60;47.88;;;;;;;;;;10437572;28;20096;-69
2022/04/22 02:04:06;;;;;;;76.30;48.42;;;;;;;;;;10436347;28;20042;-70
2022/04/22 02:09:10;;;;;;;71.93;48.53;;;;;;;;;;10436885;28;20068;-69
2022/04/22 02:14:12;;;;;;;69.70;47.05;;;;;;;;;;10396204;28;20253;-69
2022/04/22 02:19:15;;;;;;;68.93;44.13;;;;;;;;;;10403901;28;20233;-69
2022/04/22 02:24:19;;;;;;;63.22;43.20;;;;;;;;;;10417608;28;20053;-69
2022/04/22 02:29:23;;;;;;;70.83;45.93;;;;;;;;;;10395549;28;20049;-69
2022/04/22 02:34:25;;;;;;;63.30;43.10;;;;;;;;;;10407309;28;20052;-69
2022/04/22 02:39:28;;;;;;;67.43;44.80;;;;;;;;;;10409145;28;20056;-69
2022/04/22 02:49:51;;;;;;;72.50;43.00;;;;;;;;;;10447762;28;20048;-69
2022/04/22 02:54:55;;;;;;;60.20;41.55;;;;;;;;;;10432180;28;20233;-70
2022/04/22 02:59:58;;;;;;;56.83;40.97;;;;;;;;;;10432662;28;20057;-69
2022/04/22 03:05:00;;;;;;;60.42;40.80;;;;;;;;;;10432920;28;20045;-69
2022/04/22 03:10:05;;;;;;;56.80;40.78;;;;;;;;;;10432902;28;20042;-69
2022/04/22 03:15:08;;;;;;;58.50;39.37;;;;;;;;;;10433999;28;20249;-70
2022/04/22 03:20:11;;;;;;;52.95;38.55;;;;;;;;;;10434200;28;20042;-69
2022/04/22 03:25:16;;;;;;;47.70;35.35;;;;;;;;;;10432389;28;20348;-69
2022/04/22 03:30:19;;;;;;;48.03;34.42;;;;;;;;;;10433751;28;20111;-70
2022/04/22 03:35:21;;;;;;;51.90;35.50;;;;;;;;;;10432942;28;20053;-70
2022/04/22 03:40:25;;;;;;;48.83;34.70;;;;;;;;;;10431313;28;20049;-70
2022/04/22 03:45:28;;;;;;;43.92;32.05;;;;;;;;;;10431215;28;20061;-69
2022/04/22 03:50:30;;;;;;;45.22;32.72;;;;;;;;;;10431402;28;20333;-70
2022/04/22 03:55:34;;;;;;;42.40;31.13;;;;;;;;;;10432523;28;20233;-69
2022/04/22 04:00:40;;;;;;;46.65;30.98;;;;;;;;;;10432997;28;20041;-69
2022/04/22 04:05:46;;;;;;;42.97;30.70;;;;;;;;;;10444806;28;20348;-69
2022/04/22 04:16:10;;;;;;;44.33;29.35;;;;;;;;;;10417264;28;20046;-69
2022/04/22 04:26:34;;;;;;;39.03;26.67;;;;;;;;;;10405802;28;20069;-69
2022/04/22 04:31:37;;;;;;;34.50;24.98;;;;;;;;;;10429242;28;20052;-69
2022/04/22 04:36:39;;;;;;;35.40;25.05;;;;;;;;;;10409594;28;20075;-69
2022/04/22 04:41:43;;;;;;;32.58;23.60;;;;;;;;;;10409055;28;20259;-70
2022/04/22 04:46:45;;;;;;;34.15;24.33;;;;;;;;;;10411842;28;20072;-69
2022/04/22 04:51:50;;;;;;;30.30;22.55;;;;;;;;;;10410489;28;20057;-69
2022/04/22 04:56:53;;;;;;;32.47;23.13;;;;;;;;;;10407743;28;20057;-69
2022/04/22 05:01:56;;;;;;;31.52;22.08;;;;;;;;;;10413306;28;20037;-69
2022/04/22 05:06:58;;;;;;;30.38;21.70;;;;;;;;;;10407057;28;20042;-70
2022/04/22 05:12:02;;;;;;;28.38;20.50;;;;;;;;;;10410943;28;20053;-68
2022/04/22 05:17:04;;;;;;;129.02;93.88;;;;;;;;;;10401685;28;20046;-69
2022/04/22 05:22:07;;;;;;;44.42;21.75;;;;;;;;;;10430934;28;20336;-69
2022/04/22 05:27:13;;;;;;;35.15;21.58;;;;;;;;;;10436716;28;20057;-69
2022/04/22 05:37:46;;;;;;;34.33;24.08;;;;;;;;;;10452624;28;20278;-69
2022/04/22 05:42:52;;;;;;;23.70;17.80;;;;;;;;;;10412347;28;20300;-68
2022/04/22 05:47:56;;;;;;;30.38;20.25;;;;;;;;;;10435282;28;20049;-69
2022/04/22 05:52:59;;;;;;;29.15;17.80;;;;;;;;;;10437762;28;20049;-68
2022/04/22 05:58:03;;;;;;;27.05;16.80;;;;;;;;;;10437227;28;20080;-68
2022/04/22 06:03:06;;;;;;;19.63;15.23;;;;;;;;;;10435222;28;20038;-70
2022/04/22 06:13:36;;;;;;;20.52;13.82;;;;;;;;;;10389280;28;20092;-69
2022/04/22 06:18:39;;;;;;;16.63;12.00;;;;;;;;;;10355614;28;20062;-69
2022/04/22 06:23:41;;;;;;;16.77;14.52;;;;;;;;;;10349852;28;20290;-71
2022/04/22 06:28:45;;;;;;;15.95;13.07;;;;;;;;;;10349078;28;20050;-69
2022/04/22 06:33:48;;;;;;;8.10;6.80;;;;;;;;;;10341596;28;20065;-69
2022/04/22 06:38:57;;;;;;;8.10;7.00;;;;;;;;;;10309456;28;20330;-69
2022/04/22 06:49:23;;;;;;;16.80;15.10;;;;;;;;;;10407511;28;20061;-68
2022/04/22 06:54:26;;;;;;;19.45;16.90;;;;;;;;;;10433892;28;20052;-69
2022/04/22 06:59:31;;;;;;;19.60;17.08;;;;;;;;;;10434443;28;20061;-71
2022/04/22 07:04:34;;;;;;;15.90;14.48;;;;;;;;;;10431675;28;20251;-69
2022/04/22 07:09:37;;;;;;;14.82;13.43;;;;;;;;;;10436028;28;20041;-69
2022/04/22 07:14:48;;;;;;;13.50;12.30;;;;;;;;;;10434779;28;20049;-69
2022/04/22 07:19:51;;;;;;;15.60;14.00;;;;;;;;;;10448144;28;20041;-69
2022/04/22 07:24:54;;;;;;;13.32;12.13;;;;;;;;;;10435466;28;20229;-69
2022/04/22 07:29:59;;;;;;;12.38;11.27;;;;;;;;;;10434420;28;20049;-68
2022/04/22 07:35:02;;;;;;;11.77;10.55;;;;;;;;;;10433604;28;20045;-68
2022/04/22 07:40:05;;;;;;;13.13;11.80;;;;;;;;;;10433803;28;20049;-69
2022/04/22 07:50:32;;;;;;;10.27;9.38;;;;;;;;;;10432360;28;20041;-69
2022/04/22 07:55:34;;;;;;;9.10;8.40;;;;;;;;;;10398934;28;20057;-68
2022/04/22 08:00:38;;;;;;;9.02;8.23;;;;;;;;;;10433799;28;20224;-69
2022/04/22 08:05:40;;;;;;;9.30;8.50;;;;;;;;;;10433360;28;20340;-69
2022/04/22 08:10:44;;;;;;;11.80;10.57;;;;;;;;;;10432328;28;20037;-68
2022/04/22 08:15:48;;;;;;;13.13;11.73;;;;;;;;;;10432655;28;20080;-69
2022/04/22 08:20:50;;;;;;;14.37;12.47;;;;;;;;;;10432714;28;20049;-70
2022/04/22 08:25:53;;;;;;;11.63;10.63;;;;;;;;;;10431774;28;20233;-70
2022/04/22 08:30:57;;;;;;;8.00;7.38;;;;;;;;;;10431994;28;20057;-69
2022/04/22 08:36:00;;;;;;;8.25;7.55;;;;;;;;;;10433950;28;20336;-69
2022/04/22 08:41:03;;;;;;;6.50;6.00;;;;;;;;;;10438960;28;20048;-71
2022/04/22 08:49:58;;;;;;;3.92;3.63;;;;;;;;;;10437164;28;20263;-71
2022/04/22 08:51:32;;;;;;;4.55;3.50;;;;;;;;;;10441280;28;20064;-69
2022/04/22 08:56:34;;;;;;;4.07;3.72;;;;;;;;;;10439108;28;20351;-70
2022/04/22 09:01:38;;;;;;;5.90;5.32;;;;;;;;;;10436185;28;20279;-71
2022/04/22 09:06:41;;;;;;;3.35;3.15;;;;;;;;;;10436501;28;20057;-71
2022/04/22 09:11:44;;;;;;;6.80;3.30;;;;;;;;;;10439133;28;20046;-69
2022/04/22 09:16:48;;;;;;;3.67;3.47;;;;;;;;;;10438263;28;20214;-70
2022/04/22 09:21:57;;;;;;;4.03;3.72;;;;;;;;;;10437663;28;20049;-69
2022/04/22 09:27:06;;;;;;;4.55;4.25;;;;;;;;;;10452101;28;20111;-67
2022/04/22 09:32:12;;;;;;;8.00;3.22;;;;;;;;;;10437540;28;20289;-70
2022/04/22 09:42:43;;;;;;;3.33;2.88;;;;;;;;;;10434597;28;20053;-69
2022/04/22 09:48:48;;;;;;;3.70;3.38;;;;;;;;;;10387449;28;20061;-71
2022/04/22 09:54:01;;;;;;;3.90;3.60;;;;;;;;;;10406449;28;20057;-70
2022/04/22 09:59:23;;;;;;;5.80;5.40;;;;;;;;;;10406026;28;20386;-70
2022/04/22 10:04:26;;;;;;;6.00;5.50;;;;;;;;;;10372095;28;20341;-69
2022/04/22 10:09:30;;;;;;;7.40;6.80;;;;;;;;;;10376866;28;20249;-70
2022/04/22 10:24:45;;;;;;;7.50;6.80;;;;;;;;;;10733971;22;20306;-68
2022/04/22 10:29:49;;;;;;;5.68;5.28;;;;;;;;;;10464042;28;20048;-68
2022/04/22 10:34:57;;;;;;;7.07;6.53;;;;;;;;;;10476045;28;20048;-68
2022/04/22 10:40:02;;;;;;;6.57;5.97;;;;;;;;;;10489331;28;20095;-68
2022/04/22 10:50:30;;;;;;;7.45;6.88;;;;;;;;;;10382565;28;20248;-68
2022/04/22 10:55:36;;;;;;;7.90;7.20;;;;;;;;;;10387345;28;20057;-69
2022/04/22 11:00:40;;;;;;;7.88;7.28;;;;;;;;;;10384700;28;20289;-70
2022/04/22 11:05:50;;;;;;;7.15;6.55;;;;;;;;;;10375790;28;20596;-68
2022/04/22 11:11:10;;;;;;;7.53;6.82;;;;;;;;;;10389739;28;20058;-68
2022/04/22 11:16:24;;;;;;;8.13;6.75;;;;;;;;;;10403049;28;20052;-69
2022/04/22 11:21:41;;;;;;;6.87;6.27;;;;;;;;;;10382288;28;20069;-69
2022/04/22 11:26:45;;;;;;;6.18;5.68;;;;;;;;;;10446514;28;20068;-69
2022/04/22 11:31:58;;;;;;;6.35;5.80;;;;;;;;;;10471921;28;20040;-68
2022/04/22 11:37:01;;;;;;;6.60;6.00;;;;;;;;;;10451853;28;20041;-69
2022/04/22 11:42:09;;;;;;;7.70;6.90;;;;;;;;;;10456608;28;20044;-69
2022/04/22 11:47:11;;;;;;;10.05;8.65;;;;;;;;;;10486239;28;20052;-69
2022/04/22 11:52:16;;;;;;;6.95;6.05;;;;;;;;;;10473350;28;20170;-69
2022/04/22 11:57:21;;;;;;;6.90;6.35;;;;;;;;;;10439980;28;20132;-68
2022/04/22 12:13:06;;;;;;;10.52;6.20;;;;;;;;;;10475941;28;20041;-67
2022/04/22 12:18:09;;;;;;;7.40;6.35;;;;;;;;;;10468948;28;20053;-68
2022/04/22 12:23:12;;;;;;;7.47;6.63;;;;;;;;;;10477783;28;20056;-68
2022/04/22 12:28:16;;;;;;;9.55;8.43;;;;;;;;;;10481593;28;20048;-67
2022/04/22 12:33:20;;;;;;;7.95;7.20;;;;;;;;;;10476594;28;20041;-68
2022/04/22 12:38:24;;;;;;;7.90;7.20;;;;;;;;;;10473193;28;20041;-68
2022/04/22 12:43:29;;;;;;;7.63;7.00;;;;;;;;;;10480390;28;20049;-67
2022/04/22 12:53:52;;;;;;;9.02;8.20;;;;;;;;;;10494088;28;20041;-67
2022/04/22 12:58:57;;;;;;;8.38;7.10;;;;;;;;;;10479781;28;20051;-68
2022/04/22 13:03:59;;;;;;;8.93;8.23;;;;;;;;;;10493431;28;20056;-69
2022/04/22 13:09:02;;;;;;;8.80;8.10;;;;;;;;;;10474249;28;20044;-68
2022/04/22 13:14:07;;;;;;;9.38;8.48;;;;;;;;;;10478440;28;20079;-68
2022/04/22 13:19:09;;;;;;;8.50;7.80;;;;;;;;;;10478765;28;20072;-68
2022/04/22 13:24:12;;;;;;;9.25;7.50;;;;;;;;;;10473095;28;20264;-69
2022/04/22 13:29:16;;;;;;;8.43;7.60;;;;;;;;;;10437771;28;20053;-67
2022/04/22 13:34:18;;;;;;;;;;;;;;;;;;10442460;28;20044;-67
2022/04/22 13:39:21;;;;;;;9.70;8.70;;;;;;;;;;10474519;28;19939;-69
2022/04/22 13:55:04;;;;;;;10.50;9.40;;;;;;;;;;10488773;28;20244;-68
2022/04/22 14:00:10;;;;;;;9.10;8.20;;;;;;;;;;10475335;28;20040;-68
2022/04/22 14:05:13;;;;;;;10.95;8.95;;;;;;;;;;10490619;28;20041;-68
2022/04/22 14:10:15;;;;;;;11.02;9.98;;;;;;;;;;10476114;28;20036;-68
2022/04/22 14:15:20;;;;;;;10.10;9.20;;;;;;;;;;10476870;28;20045;-67
2022/04/22 14:20:23;;;;;;;10.80;9.80;;;;;;;;;;10476876;28;20053;-70
2022/04/22 14:25:25;;;;;;;7.95;7.18;;;;;;;;;;10477060;28;20064;-69
2022/04/22 14:30:29;;;;;;;9.80;8.90;;;;;;;;;;10477703;28;20445;-68
2022/04/22 14:35:32;;;;;;;10.60;8.88;;;;;;;;;;10470124;28;20059;-70
2022/04/22 14:40:34;;;;;;;10.68;9.27;;;;;;;;;;10477799;28;20037;-69
2022/04/22 14:45:38;;;;;;;13.02;9.30;;;;;;;;;;10475040;28;20056;-69
2022/04/22 14:50:42;;;;;;;9.18;8.25;;;;;;;;;;10472644;28;20055;-69
2022/04/22 14:55:44;;;;;;;9.43;7.80;;;;;;;;;;10445813;28;20271;-70
2022/04/22 15:00:48;;;;;;;9.63;7.65;;;;;;;;;;10469620;28;20041;-70
2022/04/22 15:05:51;;;;;;;9.20;7.95;;;;;;;;;;10477234;28;20086;-69
2022/04/22 15:10:53;;;;;;;10.95;8.43;;;;;;;;;;10476093;28;20041;-68
2022/04/22 15:15:57;;;;;;;9.13;8.23;;;;;;;;;;10474815;28;20217;-69
2022/04/22 15:26:20;;;;;;;7.95;7.25;;;;;;;;;;10476752;28;20220;-68
2022/04/22 15:31:24;;;;;;;10.43;8.68;;;;;;;;;;10473922;28;20041;-68
2022/04/22 15:36:27;;;;;;;11.67;8.20;;;;;;;;;;10473537;28;20053;-68
2022/04/22 15:41:32;;;;;;;8.48;7.40;;;;;;;;;;10470668;28;20037;-70
2022/04/22 15:46:36;;;;;;;9.38;8.38;;;;;;;;;;10475126;28;20052;-68
2022/04/22 15:51:38;;;;;;;8.82;6.57;;;;;;;;;;10473124;28;20053;-70
2022/04/22 15:56:41;;;;;;;7.97;7.18;;;;;;;;;;10471590;28;20041;-68
2022/04/22 16:01:45;;;;;;;7.80;7.00;;;;;;;;;;10467802;28;20087;-69
2022/04/22 16:06:49;;;;;;;8.85;7.78;;;;;;;;;;10474680;28;20367;-70
2022/04/22 16:17:13;;;;;;;8.88;7.72;;;;;;;;;;10487861;28;20301;-69
2022/04/22 16:22:16;;;;;;;8.15;7.18;;;;;;;;;;10472182;28;20057;-69
2022/04/22 16:27:18;;;;;;;7.28;6.18;;;;;;;;;;10472826;28;20331;-68
2022/04/22 16:32:22;;;;;;;6.53;5.90;;;;;;;;;;10452601;28;20335;-69
2022/04/22 16:37:25;;;;;;;6.50;5.88;;;;;;;;;;10467870;28;20116;-68
2022/04/22 16:42:28;;;;;;;7.68;6.78;;;;;;;;;;10470207;28;20060;-68
2022/04/22 16:47:32;;;;;;;7.78;7.03;;;;;;;;;;10471179;28;20040;-68
2022/04/22 16:52:35;;;;;;;10.00;7.67;;;;;;;;;;10469564;28;20064;-68
2022/04/22 16:57:38;;;;;;;9.90;8.80;;;;;;;;;;10474981;28;20144;-68
2022/04/22 17:02:44;;;;;;;8.60;7.60;;;;;;;;;;10480482;28;20052;-69
2022/04/22 17:07:46;;;;;;;9.40;8.20;;;;;;;;;;10479225;28;20052;-69
2022/04/22 17:12:49;;;;;;;17.05;8.98;;;;;;;;;;10479150;28;20102;-68
2022/04/22 17:23:10;;;;;;;6.43;5.90;;;;;;;;;;10450177;28;20306;-67
2022/04/22 17:28:13;;;;;;;7.22;6.63;;;;;;;;;;10476952;28;20075;-69
2022/04/22 17:33:17;;;;;;;9.93;7.80;;;;;;;;;;10477150;28;20049;-69
2022/04/22 17:38:19;;;;;;;9.43;8.43;;;;;;;;;;10478907;28;20045;-69
2022/04/22 17:43:21;;;;;;;9.43;8.48;;;;;;;;;;10476586;28;20324;-68
2022/04/22 17:48:25;;;;;;;11.60;9.25;;;;;;;;;;10478522;28;20094;-70
2022/04/22 17:53:27;;;;;;;9.25;8.35;;;;;;;;;;10477564;28;20057;-70
2022/04/22 17:58:30;;;;;;;12.38;8.88;;;;;;;;;;10477343;28;20041;-69
2022/04/22 18:03:33;;;;;;;10.27;8.95;;;;;;;;;;10463375;28;20049;-70
2022/04/22 18:08:36;;;;;;;10.70;9.52;;;;;;;;;;10478272;28;20057;-69
2022/04/22 18:13:39;;;;;;;13.18;9.50;;;;;;;;;;10438916;28;20049;-69
2022/04/22 18:18:43;;;;;;;12.48;10.13;;;;;;;;;;10436154;28;20049;-69
2022/04/22 18:23:47;;;;;;;12.48;9.80;;;;;;;;;;10471435;28;20061;-69
2022/04/22 18:28:49;;;;;;;12.93;10.32;;;;;;;;;;10477263;28;20041;-71
2022/04/22 18:33:53;;;;;;;11.85;9.88;;;;;;;;;;10475564;28;20049;-70
2022/04/22 18:38:56;;;;;;;14.18;11.82;;;;;;;;;;10476374;28;20049;-68
2022/04/22 18:43:58;;;;;;;19.45;12.63;;;;;;;;;;10477528;28;20056;-69
2022/04/22 18:49:05;;;;;;;30.02;18.70;;;;;;;;;;10476267;28;20094;-69
2022/04/22 18:54:08;;;;;;;18.52;13.15;;;;;;;;;;10475291;28;20037;-69
2022/04/22 18:59:11;;;;;;;18.48;14.38;;;;;;;;;;10475178;28;20041;-68
2022/04/22 19:04:15;;;;;;;20.60;15.10;;;;;;;;;;10441255;28;20296;-69
2022/04/22 19:09:17;;;;;;;25.50;16.08;;;;;;;;;;10474133;28;20082;-69
2022/04/22 19:14:20;;;;;;;19.67;13.95;;;;;;;;;;10433856;28;20053;-67
2022/04/22 19:19:25;;;;;;;19.35;13.32;;;;;;;;;;10434599;28;20038;-67
2022/04/22 19:24:27;;;;;;;17.60;12.83;;;;;;;;;;10433503;28;20065;-68
2022/04/22 19:29:31;;;;;;;15.57;12.82;;;;;;;;;;10434966;28;20351;-68
2022/04/22 19:34:34;;;;;;;21.00;14.73;;;;;;;;;;10453213;28;20041;-68
2022/04/22 19:44:56;;;;;;;19.42;14.57;;;;;;;;;;10487356;28;20048;-68
2022/04/22 19:50:00;;;;;;;34.45;24.00;;;;;;;;;;10474193;28;20041;-69
2022/04/22 19:55:03;;;;;;;42.33;24.50;;;;;;;;;;10474822;28;20045;-68
2022/04/22 20:00:08;;;;;;;40.13;22.13;;;;;;;;;;10471989;28;20060;-67
2022/04/22 20:05:12;;;;;;;31.25;21.85;;;;;;;;;;10474204;28;20045;-70
2022/04/22 20:10:15;;;;;;;24.48;17.50;;;;;;;;;;10472986;28;20045;-69
2022/04/22 20:15:17;;;;;;;23.23;16.45;;;;;;;;;;10473145;28;20344;-68
2022/04/22 20:20:21;;;;;;;29.20;19.30;;;;;;;;;;10473252;28;20045;-70
2022/04/22 20:25:25;;;;;;;26.33;17.80;;;;;;;;;;10473410;28;20232;-69
2022/04/22 20:30:28;;;;;;;26.48;18.02;;;;;;;;;;10472877;28;20048;-69
2022/04/22 20:40:52;;;;;;;25.08;16.98;;;;;;;;;;10494964;28;20044;-68
2022/04/22 20:45:54;;;;;;;25.90;17.30;;;;;;;;;;10478248;28;20053;-69
2022/04/22 20:50:59;;;;;;;25.48;15.88;;;;;;;;;;10469749;28;20046;-68
2022/04/22 20:56:01;;;;;;;20.90;14.53;;;;;;;;;;10465079;28;20049;-69
2022/04/22 21:01:05;;;;;;;19.63;14.95;;;;;;;;;;10469874;28;20049;-69
2022/04/22 21:06:09;;;;;;;19.67;14.80;;;;;;;;;;10481011;28;20048;-68
2022/04/22 21:11:11;;;;;;;20.38;15.18;;;;;;;;;;10478981;28;20048;-68
2022/04/22 21:16:14;;;;;;;25.98;15.90;;;;;;;;;;10480530;28;20041;-69
2022/04/22 21:21:20;;;;;;;24.13;16.55;;;;;;;;;;10479164;28;20064;-68
2022/04/22 21:26:23;;;;;;;21.77;16.45;;;;;;;;;;10459672;28;20068;-69
2022/04/22 21:31:26;;;;;;;22.98;16.20;;;;;;;;;;10478061;28;20044;-68
2022/04/22 21:36:30;;;;;;;22.85;16.67;;;;;;;;;;10479864;28;20235;-70
2022/04/22 21:41:32;;;;;;;20.30;15.15;;;;;;;;;;10476914;28;20308;-68
2022/04/22 21:46:35;;;;;;;20.10;14.18;;;;;;;;;;10476620;28;20225;-69
2022/04/22 21:51:38;;;;;;;23.25;16.80;;;;;;;;;;10476141;28;20112;-69
2022/04/22 21:56:40;;;;;;;30.88;20.60;;;;;;;;;;10473739;28;20059;-68
2022/04/22 22:01:43;;;;;;;31.00;21.33;;;;;;;;;;10477726;28;20048;-68
2022/04/22 22:06:48;;;;;;;34.10;22.20;;;;;;;;;;10478383;28;20057;-69
2022/04/22 22:11:51;;;;;;;36.30;22.75;;;;;;;;;;10491331;28;20047;-68
2022/04/22 22:16:53;;;;;;;39.83;24.67;;;;;;;;;;10455581;28;20279;-68
2022/04/22 22:21:57;;;;;;;38.70;22.70;;;;;;;;;;10437501;28;20037;-68
2022/04/22 22:27:00;;;;;;;35.83;23.92;;;;;;;;;;10466959;28;20045;-68
2022/04/22 22:32:02;;;;;;;38.03;26.70;;;;;;;;;;10451517;28;20049;-67
2022/04/22 22:37:06;;;;;;;35.88;25.35;;;;;;;;;;10475389;28;20041;-68
2022/04/22 22:42:08;;;;;;;41.60;26.13;;;;;;;;;;10476849;28;20045;-67
2022/04/22 22:47:11;;;;;;;37.20;26.08;;;;;;;;;;10473332;28;20054;-70
2022/04/22 22:52:14;;;;;;;41.28;26.85;;;;;;;;;;10475500;28;20041;-68
2022/04/22 22:57:17;;;;;;;38.70;25.50;;;;;;;;;;10475078;28;20041;-68
2022/04/22 23:02:20;;;;;;;47.97;28.30;;;;;;;;;;10475728;28;20048;-67
2022/04/22 23:07:24;;;;;;;40.95;26.90;;;;;;;;;;10473648;28;20052;-67
2022/04/22 23:12:27;;;;;;;39.05;25.40;;;;;;;;;;10475046;28;20044;-67
2022/04/22 23:17:29;;;;;;;41.22;26.83;;;;;;;;;;10474319;28;20240;-67
2022/04/22 23:22:34;;;;;;;40.17;26.77;;;;;;;;;;10474113;28;20091;-68
2022/04/22 23:27:37;;;;;;;51.35;29.75;;;;;;;;;;10487550;28;20060;-67
2022/04/22 23:32:39;;;;;;;50.50;30.20;;;;;;;;;;10472795;28;20050;-67
2022/04/22 23:37:42;;;;;;;43.22;29.30;;;;;;;;;;10474449;28;20102;-67
2022/04/22 23:42:45;;;;;;;43.92;29.20;;;;;;;;;;10473194;28;20044;-68
2022/04/22 23:47:47;;;;;;;45.80;27.90;;;;;;;;;;10471860;28;20045;-67
2022/04/22 23:52:51;;;;;;;44.38;27.20;;;;;;;;;;10472287;28;20049;-67
2022/04/22 23:57:53;;;;;;;42.70;26.13;;;;;;;;;;10470818;28;20057;-68
